createdAt,value
2017-08-05T21:19:23.204Z,15.00
2017-08-05T21:21:49.810Z,15.00
2017-08-05T21:24:16.859Z,14.90
2017-08-05T21:26:43.455Z,14.90
2017-08-05T21:29:09.747Z,14.90
2017-08-05T21:31:36.775Z,14.90
2017-08-05T21:34:03.087Z,14.90
2017-08-05T21:36:29.380Z,14.90
2017-08-05T21:38:55.670Z,14.90
2017-08-05T21:41:22.135Z,14.80
2017-08-05T21:43:48.450Z,14.70
2017-08-05T21:46:14.736Z,14.70
2017-08-05T21:48:41.199Z,14.70
2017-08-05T21:51:07.491Z,14.70
2017-08-05T21:53:33.766Z,14.60
2017-08-05T21:56:00.808Z,14.60
2017-08-05T21:58:27.105Z,14.50
2017-08-05T22:00:53.399Z,14.60
2017-08-05T22:03:19.954Z,14.60
2017-08-05T22:05:46.238Z,14.50
2017-08-05T22:08:13.258Z,14.50
2017-08-05T22:10:39.586Z,14.40
2017-08-05T22:13:05.896Z,14.50
2017-08-05T22:15:32.976Z,14.50
2017-08-05T22:17:59.288Z,14.50
2017-08-05T22:20:25.563Z,14.40
2017-08-05T22:22:52.483Z,14.40
2017-08-05T22:25:18.854Z,14.30
2017-08-05T22:27:45.159Z,14.30
2017-08-05T22:30:12.656Z,14.20
2017-08-05T22:32:38.950Z,14.20
2017-08-05T22:35:05.977Z,14.20
2017-08-05T22:37:32.267Z,14.20
2017-08-05T22:39:58.598Z,14.20
2017-08-05T22:42:24.875Z,14.20
2017-08-05T22:44:51.163Z,14.10
2017-08-05T22:47:17.469Z,14.10
2017-08-05T22:49:43.753Z,14.10
2017-08-05T22:52:10.027Z,14.00
2017-08-05T22:57:10.210Z,13.90
2017-08-05T22:59:36.594Z,13.90
2017-08-05T23:02:02.884Z,13.90
2017-08-05T23:04:29.162Z,13.90
2017-08-05T23:06:55.832Z,13.90
2017-08-05T23:09:22.115Z,13.90
2017-08-05T23:11:48.396Z,13.90
2017-08-05T23:14:14.802Z,13.90
2017-08-05T23:16:41.069Z,13.80
2017-08-05T23:19:07.351Z,13.80
2017-08-05T23:21:40.609Z,13.80
2017-08-05T23:24:07.626Z,13.80
2017-08-05T23:26:33.893Z,13.80
2017-08-05T23:29:01.297Z,13.80
2017-08-05T23:31:27.590Z,13.80
2017-08-05T23:33:53.881Z,13.80
2017-08-05T23:36:20.187Z,13.80
2017-08-05T23:38:46.477Z,13.80
2017-08-05T23:41:12.743Z,13.80
2017-08-05T23:43:39.049Z,13.80
2017-08-05T23:46:05.339Z,13.80
2017-08-05T23:48:31.607Z,13.80
2017-08-05T23:50:58.054Z,13.80
2017-08-05T23:53:24.351Z,13.80
2017-08-05T23:55:50.639Z,13.80
2017-08-05T23:58:17.087Z,13.70
